Time;durP1;ratioP1;P1;durP2;ratioP2;P2;SDS_P1;SDS_P2;PMS_P1;PMS_P2;Temp;Humidity;BMP_temperature;BMP_pressure;BME280_temperature;BME280_humidity;BME280_pressure;Samples;Min_cycle;Max_cycle;Signal;HPM_P1;HPM_P2
2023/10/19 00:01:55;;;;;;;5.72;3.15;;;7.50;86.10;;;;;;5003476;28;20026;-69
2023/10/19 00:04:22;;;;;;;4.55;2.38;;;7.50;85.70;;;;;;5017056;28;20079;-68
2023/10/19 00:06:48;;;;;;;3.80;2.10;;;7.50;85.90;;;;;;5008701;28;20482;-68
2023/10/19 00:09:15;;;;;;;3.78;2.20;;;7.50;85.70;;;;;;5008243;28;20030;-68
2023/10/19 00:11:41;;;;;;;3.55;2.00;;;7.50;85.30;;;;;;5004351;28;20057;-68
2023/10/19 00:14:16;;;;;;;4.63;2.22;;;7.50;85.40;;;;;;5008082;28;20467;-69
2023/10/19 00:16:44;;;;;;;8.13;2.90;;;7.50;85.40;;;;;;4996016;28;20542;-68
2023/10/19 00:19:11;;;;;;;4.13;2.47;;;7.50;85.80;;;;;;5008238;28;20041;-68
2023/10/19 00:21:50;;;;;;;5.68;2.78;;;7.50;86.20;;;;;;5017897;28;20427;-68
2023/10/19 00:24:17;;;;;;;4.90;2.75;;;7.50;85.70;;;;;;5013466;28;20025;-68
2023/10/19 00:26:44;;;;;;;4.65;2.30;;;7.50;85.80;;;;;;5009413;28;20050;-69
2023/10/19 00:29:30;;;;;;;3.47;2.03;;;7.50;86.00;;;;;;5011813;28;20380;-69
2023/10/19 00:31:57;;;;;;;4.50;2.35;;;7.50;86.20;;;;;;5013241;28;20039;-69
2023/10/19 00:34:22;;;;;;;5.82;2.67;;;7.50;86.20;;;;;;5008578;28;20434;-68
2023/10/19 00:36:50;;;;;;;5.07;2.13;;;7.50;86.30;;;;;;5005267;28;20092;-68
2023/10/19 00:39:20;;;;;;;5.85;3.05;;;7.50;85.90;;;;;;5007920;28;20026;-69
2023/10/19 00:41:46;;;;;;;4.68;2.38;;;7.50;85.80;;;;;;5002246;28;20031;-70
2023/10/19 00:44:12;;;;;;;7.22;2.78;;;7.50;86.20;;;;;;5004300;28;20120;-68
2023/10/19 00:49:09;;;;;;;4.82;2.22;;;7.50;85.90;;;;;;5006233;28;20107;-68
2023/10/19 00:54:09;;;;;;;4.45;1.92;;;7.60;85.80;;;;;;5011924;28;20038;-68
2023/10/19 00:56:35;;;;;;;6.93;3.22;;;7.60;86.00;;;;;;5004335;28;20049;-68
2023/10/19 00:59:14;;;;;;;5.32;2.90;;;7.60;85.70;;;;;;5008062;28;20038;-68
2023/10/19 01:01:44;;;;;;;5.50;3.13;;;7.60;86.10;;;;;;5013506;28;20037;-70
2023/10/19 01:04:15;;;;;;;5.37;2.43;;;7.60;85.90;;;;;;5007243;28;20065;-69
2023/10/19 01:06:44;;;;;;;4.35;2.17;;;7.50;86.00;;;;;;5010711;28;20034;-68
2023/10/19 01:09:14;;;;;;;6.57;2.97;;;7.60;85.80;;;;;;5011472;28;20034;-68
2023/10/19 01:11:45;;;;;;;4.72;2.63;;;7.60;86.00;;;;;;5005189;28;20426;-68
2023/10/19 01:14:22;;;;;;;5.60;2.88;;;7.60;86.10;;;;;;5005392;28;20071;-68
2023/10/19 01:16:49;;;;;;;6.05;2.85;;;7.50;85.90;;;;;;5002342;28;20109;-68
2023/10/19 01:19:18;;;;;;;5.70;2.95;;;7.50;85.80;;;;;;5004806;28;20048;-68
2023/10/19 01:21:46;;;;;;;4.35;2.13;;;7.50;86.50;;;;;;5004766;28;20040;-68
2023/10/19 01:24:16;;;;;;;4.68;2.22;;;7.50;86.50;;;;;;5003122;28;20062;-68
2023/10/19 01:26:42;;;;;;;5.17;3.00;;;7.50;86.40;;;;;;5005927;28;20049;-68
2023/10/19 01:29:16;;;;;;;5.50;2.45;;;7.50;86.20;;;;;;5005340;28;20030;-68
2023/10/19 01:32:04;;;;;;;4.28;2.22;;;7.50;86.50;;;;;;5001997;28;20018;-68
2023/10/19 01:34:30;;;;;;;5.75;2.78;;;7.50;86.60;;;;;;5004093;28;20463;-69
2023/10/19 01:36:56;;;;;;;5.20;2.42;;;7.50;86.70;;;;;;5007327;28;20037;-68
2023/10/19 01:39:21;;;;;;;6.10;3.42;;;7.50;86.50;;;;;;5007510;28;20466;-68
2023/10/19 01:41:50;;;;;;;6.15;3.42;;;7.50;87.00;;;;;;5000552;28;20030;-68
2023/10/19 01:44:16;;;;;;;6.85;3.05;;;7.50;86.70;;;;;;5005565;28;20501;-68
2023/10/19 01:46:45;;;;;;;5.25;2.83;;;7.50;86.80;;;;;;5003597;28;20070;-68
2023/10/19 01:49:11;;;;;;;5.32;2.50;;;7.50;87.10;;;;;;5009108;28;20095;-68
2023/10/19 01:51:38;;;;;;;6.82;2.63;;;7.40;87.30;;;;;;5008064;28;20069;-68
2023/10/19 01:54:05;;;;;;;7.60;2.60;;;7.40;87.70;;;;;;5011118;28;20492;-68
2023/10/19 01:56:33;;;;;;;6.50;2.63;;;7.40;87.50;;;;;;5006069;28;20431;-69
2023/10/19 01:58:59;;;;;;;4.88;2.60;;;7.40;88.10;;;;;;5004012;28;20038;-69
2023/10/19 02:03:59;;;;;;;4.47;2.38;;;7.20;88.80;;;;;;5011485;28;20030;-68
2023/10/19 02:06:27;;;;;;;5.55;2.88;;;7.20;89.60;;;;;;5011395;28;20124;-68
2023/10/19 02:09:09;;;;;;;5.50;2.80;;;7.10;90.50;;;;;;5004502;28;20026;-67
2023/10/19 02:11:37;;;;;;;4.55;2.63;;;7.10;90.80;;;;;;5005913;28;20048;-68
2023/10/19 02:14:08;;;;;;;5.43;3.00;;;7.10;91.30;;;;;;5010631;28;20502;-68
2023/10/19 02:16:36;;;;;;;5.57;3.25;;;7.00;91.30;;;;;;5000049;28;20030;-68
2023/10/19 02:19:02;;;;;;;4.55;2.65;;;7.00;91.60;;;;;;5002739;28;20049;-68
2023/10/19 02:21:30;;;;;;;5.30;2.80;;;7.00;91.90;;;;;;5010635;28;20504;-68
2023/10/19 02:23:57;;;;;;;5.63;2.97;;;6.90;91.90;;;;;;5008014;28;20120;-68
2023/10/19 02:26:26;;;;;;;6.05;3.25;;;6.90;92.10;;;;;;5006150;28;20062;-68
2023/10/19 02:28:52;;;;;;;4.95;3.13;;;6.80;92.50;;;;;;5012407;28;20278;-69
2023/10/19 02:31:21;;;;;;;6.53;3.03;;;6.80;92.80;;;;;;5010275;28;20038;-68
2023/10/19 02:33:51;;;;;;;6.00;3.03;;;6.80;92.70;;;;;;5007012;28;20426;-69
2023/10/19 02:36:19;;;;;;;5.07;3.00;;;6.80;93.00;;;;;;5006488;28;20033;-68
2023/10/19 02:38:51;;;;;;;5.82;2.83;;;6.80;92.80;;;;;;5006881;28;20058;-68
2023/10/19 02:41:19;;;;;;;5.45;2.55;;;6.80;93.20;;;;;;4999586;28;20030;-67
2023/10/19 02:43:51;;;;;;;6.80;3.35;;;6.80;93.60;;;;;;5005250;28;20088;-68
2023/10/19 02:46:17;;;;;;;5.38;2.83;;;6.80;93.50;;;;;;5010208;28;20487;-69
2023/10/19 02:48:49;;;;;;;6.43;3.17;;;6.70;93.40;;;;;;4999972;28;20026;-68
2023/10/19 02:51:15;;;;;;;6.47;3.25;;;6.70;93.80;;;;;;4999989;28;20046;-68
2023/10/19 02:53:42;;;;;;;4.90;2.47;;;6.70;93.90;;;;;;5003903;28;20058;-68
2023/10/19 02:56:16;;;;;;;7.22;3.38;;;6.60;94.20;;;;;;5004539;28;20475;-71
2023/10/19 02:58:48;;;;;;;7.82;3.50;;;6.60;94.60;;;;;;5005089;28;20037;-68
2023/10/19 03:01:22;;;;;;;4.47;2.50;;;6.60;94.70;;;;;;5004404;28;20486;-69
2023/10/19 03:03:53;;;;;;;5.70;3.22;;;6.60;95.10;;;;;;5004674;28;20026;-68
2023/10/19 03:06:22;;;;;;;5.72;2.63;;;6.60;95.20;;;;;;5003447;28;20061;-69
2023/10/19 03:09:01;;;;;;;7.05;3.22;;;6.50;95.40;;;;;;5006237;28;20397;-68
2023/10/19 03:11:29;;;;;;;7.22;3.83;;;6.50;95.80;;;;;;5003511;28;20387;-68
2023/10/19 03:13:57;;;;;;;7.30;3.60;;;6.50;96.10;;;;;;5007919;28;20033;-68
2023/10/19 03:16:23;;;;;;;6.88;3.20;;;6.40;96.20;;;;;;5001656;28;20056;-69
2023/10/19 03:18:49;;;;;;;5.90;3.60;;;6.40;96.40;;;;;;5003057;28;20053;-69
2023/10/19 03:21:17;;;;;;;6.57;3.35;;;6.40;96.40;;;;;;5000679;28;20033;-68
2023/10/19 03:23:42;;;;;;;6.70;3.30;;;6.40;96.60;;;;;;5008999;28;20034;-67
2023/10/19 03:26:27;;;;;;;5.97;3.17;;;6.40;96.80;;;;;;5006124;28;20420;-71
2023/10/19 03:28:56;;;;;;;7.97;3.60;;;6.40;96.90;;;;;;5011771;28;20034;-67
2023/10/19 03:31:24;;;;;;;6.55;3.85;;;6.40;97.10;;;;;;5009983;28;20033;-68
2023/10/19 03:34:02;;;;;;;8.00;3.63;;;6.40;97.20;;;;;;5010541;28;20037;-68
2023/10/19 03:36:27;;;;;;;6.25;3.55;;;6.30;97.30;;;;;;5004787;28;20054;-68
2023/10/19 03:38:56;;;;;;;6.38;3.45;;;6.30;97.30;;;;;;5007831;28;20128;-68
2023/10/19 03:41:21;;;;;;;8.18;4.13;;;6.30;97.30;;;;;;5003789;28;20022;-68
2023/10/19 03:43:53;;;;;;;7.13;4.57;;;6.30;97.30;;;;;;5007277;28;20036;-68
2023/10/19 03:46:31;;;;;;;7.55;3.85;;;6.30;97.50;;;;;;5010369;28;20042;-69
2023/10/19 03:49:04;;;;;;;8.55;4.22;;;6.30;97.60;;;;;;5006991;28;20091;-69
2023/10/19 03:51:39;;;;;;;7.65;3.47;;;6.30;97.70;;;;;;5006102;28;20490;-68
2023/10/19 03:54:19;;;;;;;6.68;3.90;;;6.30;97.80;;;;;;5006190;28;20022;-68
2023/10/19 03:56:44;;;;;;;6.50;3.53;;;6.20;97.90;;;;;;4993136;28;20036;-68
2023/10/19 03:59:10;;;;;;;6.43;3.95;;;6.30;98.00;;;;;;5009250;28;20034;-68
2023/10/19 04:01:35;;;;;;;7.65;4.13;;;6.20;98.10;;;;;;5004426;28;20375;-68
2023/10/19 04:04:01;;;;;;;8.52;4.30;;;6.20;98.10;;;;;;5003077;28;20049;-68
2023/10/19 04:06:27;;;;;;;6.95;3.53;;;6.20;98.20;;;;;;5001131;28;20503;-68
2023/10/19 04:08:53;;;;;;;6.70;4.13;;;6.20;98.30;;;;;;5007378;28;20026;-68
2023/10/19 04:11:21;;;;;;;6.85;3.47;;;6.20;98.30;;;;;;5010138;28;20485;-68
2023/10/19 04:13:52;;;;;;;5.93;2.78;;;6.10;98.40;;;;;;5012078;28;20479;-68
2023/10/19 04:16:18;;;;;;;7.45;3.90;;;6.20;98.40;;;;;;5004028;28;20491;-68
2023/10/19 04:18:44;;;;;;;8.05;3.70;;;6.10;98.50;;;;;;5007519;28;20034;-69
2023/10/19 04:21:10;;;;;;;6.38;3.53;;;6.20;98.50;;;;;;5009064;28;20625;-71
2023/10/19 04:23:36;;;;;;;6.75;3.75;;;6.20;98.50;;;;;;5006466;28;20042;-71
2023/10/19 04:26:05;;;;;;;7.03;3.83;;;6.10;98.50;;;;;;5004873;28;20038;-68
2023/10/19 04:28:38;;;;;;;7.43;3.78;;;6.10;98.60;;;;;;5008565;28;20088;-65
2023/10/19 04:31:03;;;;;;;8.45;3.63;;;6.20;98.60;;;;;;4999385;28;20379;-66
2023/10/19 04:33:31;;;;;;;8.45;4.07;;;6.10;98.60;;;;;;5010636;28;20030;-67
2023/10/19 04:35:56;;;;;;;8.70;4.15;;;6.10;98.60;;;;;;5002674;28;20034;-65
2023/10/19 04:38:23;;;;;;;7.10;3.75;;;6.10;98.60;;;;;;5005963;28;20036;-65
2023/10/19 04:40:49;;;;;;;7.95;4.20;;;6.20;98.70;;;;;;5001694;28;20468;-66
2023/10/19 04:43:16;;;;;;;8.45;3.63;;;6.10;98.70;;;;;;5002912;28;20034;-65
2023/10/19 04:45:42;;;;;;;7.50;3.65;;;6.20;98.70;;;;;;5006247;28;20537;-65
2023/10/19 04:48:07;;;;;;;9.27;4.10;;;6.20;98.80;;;;;;5012442;28;20030;-66
2023/10/19 04:50:33;;;;;;;7.82;3.60;;;6.10;98.80;;;;;;5011345;28;20040;-66
2023/10/19 04:52:58;;;;;;;8.85;4.30;;;6.10;98.60;;;;;;5007751;28;20580;-67
2023/10/19 04:55:24;;;;;;;7.45;3.80;;;6.10;98.80;;;;;;5011134;28;20121;-66
2023/10/19 04:57:49;;;;;;;7.72;4.10;;;6.20;98.80;;;;;;5007636;28;20022;-65
2023/10/19 05:00:15;;;;;;;7.70;3.40;;;6.10;98.80;;;;;;5008102;28;20471;-65
2023/10/19 05:02:41;;;;;;;6.57;3.50;;;6.20;98.90;;;;;;5013547;28;20066;-65
2023/10/19 05:05:07;;;;;;;6.68;3.35;;;6.10;98.80;;;;;;5002096;28;20113;-65
2023/10/19 05:07:33;;;;;;;6.85;3.97;;;6.10;98.90;;;;;;5000195;28;20032;-65
2023/10/19 05:09:59;;;;;;;6.78;3.40;;;6.10;98.70;;;;;;5002780;28;20061;-67
2023/10/19 05:12:24;;;;;;;7.47;3.80;;;6.10;98.80;;;;;;5008835;28;20030;-65
2023/10/19 05:14:50;;;;;;;6.97;3.80;;;6.10;98.80;;;;;;5003194;28;20027;-66
2023/10/19 05:17:16;;;;;;;6.85;3.88;;;6.10;98.80;;;;;;5000636;28;20048;-65
2023/10/19 05:19:41;;;;;;;7.85;3.63;;;6.10;98.80;;;;;;5011362;28;20065;-67
2023/10/19 05:22:08;;;;;;;8.07;4.45;;;6.10;98.80;;;;;;5008452;28;20042;-65
2023/10/19 05:24:35;;;;;;;7.05;3.70;;;6.10;98.80;;;;;;5008349;28;20077;-69
2023/10/19 05:27:01;;;;;;;7.38;3.35;;;6.10;98.80;;;;;;5001429;28;20057;-65
2023/10/19 05:29:26;;;;;;;7.60;4.25;;;6.10;98.80;;;;;;5005990;28;20034;-65
2023/10/19 05:31:53;;;;;;;8.98;3.78;;;6.10;98.90;;;;;;5009000;28;20034;-65
2023/10/19 05:34:23;;;;;;;8.40;3.65;;;6.10;98.90;;;;;;5005922;28;20497;-66
2023/10/19 05:36:49;;;;;;;6.82;3.45;;;6.10;98.90;;;;;;5005046;28;20443;-65
2023/10/19 05:39:15;;;;;;;7.53;3.75;;;6.10;98.90;;;;;;5010621;28;20056;-65
2023/10/19 05:41:40;;;;;;;6.68;3.83;;;6.10;98.90;;;;;;5001934;28;20383;-65
2023/10/19 05:44:06;;;;;;;5.95;3.20;;;6.10;99.00;;;;;;5001796;28;20034;-65
2023/10/19 05:46:32;;;;;;;8.80;4.03;;;6.00;98.80;;;;;;5011746;28;20050;-65
2023/10/19 05:48:57;;;;;;;10.77;4.80;;;6.10;98.90;;;;;;5011981;28;20080;-65
2023/10/19 05:51:23;;;;;;;6.75;3.65;;;6.00;98.80;;;;;;5006755;28;20497;-65
2023/10/19 05:53:50;;;;;;;7.40;3.83;;;6.00;98.90;;;;;;5012872;28;20038;-67
2023/10/19 05:56:17;;;;;;;7.53;3.70;;;6.10;98.90;;;;;;5004211;28;20498;-66
2023/10/19 05:58:42;;;;;;;6.63;3.72;;;6.10;99.00;;;;;;5007896;28;20057;-65
2023/10/19 06:01:08;;;;;;;7.63;3.33;;;6.10;99.00;;;;;;5009959;28;20034;-66
2023/10/19 06:03:34;;;;;;;8.73;3.70;;;6.00;98.90;;;;;;5012144;28;20042;-65
2023/10/19 06:05:59;;;;;;;7.45;4.15;;;6.10;98.90;;;;;;5003465;28;20052;-66
2023/10/19 06:08:26;;;;;;;7.30;3.67;;;6.10;98.90;;;;;;5007124;28;20018;-65
2023/10/19 06:10:52;;;;;;;8.23;4.05;;;6.00;98.90;;;;;;5011893;28;20063;-65
2023/10/19 06:13:18;;;;;;;7.03;3.83;;;6.10;98.90;;;;;;5005529;28;20428;-66
2023/10/19 06:15:44;;;;;;;7.78;4.03;;;6.00;98.90;;;;;;5006023;28;20474;-66
2023/10/19 06:18:10;;;;;;;6.82;3.65;;;6.10;98.90;;;;;;5006309;28;20069;-65
2023/10/19 06:20:43;;;;;;;7.72;4.13;;;6.10;98.90;;;;;;5006969;28;20109;-65
2023/10/19 06:23:11;;;;;;;6.82;3.78;;;6.10;98.90;;;;;;5008262;28;20382;-65
2023/10/19 06:25:36;;;;;;;7.10;3.42;;;6.10;99.00;;;;;;5009537;28;20045;-68
2023/10/19 06:28:02;;;;;;;8.07;4.30;;;6.00;98.90;;;;;;5008000;28;20390;-65
2023/10/19 06:30:28;;;;;;;7.05;4.00;;;6.00;98.90;;;;;;5005537;28;20033;-65
2023/10/19 06:32:57;;;;;;;6.57;3.47;;;6.10;99.00;;;;;;5006790;28;20081;-65
2023/10/19 06:35:23;;;;;;;8.63;4.53;;;6.10;99.10;;;;;;5010968;28;20116;-65
2023/10/19 06:37:49;;;;;;;6.32;3.50;;;6.00;99.10;;;;;;5008305;28;20105;-67
2023/10/19 06:40:16;;;;;;;7.43;4.55;;;6.00;99.10;;;;;;5004543;28;20042;-66
2023/10/19 06:42:46;;;;;;;7.65;3.85;;;6.00;99.20;;;;;;5007722;28;21051;-65
2023/10/19 06:45:16;;;;;;;6.82;4.00;;;6.00;99.20;;;;;;5008982;28;20124;-65
2023/10/19 06:47:44;;;;;;;6.55;3.38;;;6.00;99.20;;;;;;5002102;28;20037;-65
2023/10/19 06:50:11;;;;;;;6.15;3.22;;;6.10;99.30;;;;;;5010114;28;20034;-66
2023/10/19 06:52:37;;;;;;;8.80;4.18;;;6.00;99.20;;;;;;5008474;28;20417;-65
2023/10/19 06:55:04;;;;;;;5.38;3.25;;;6.00;99.20;;;;;;5010796;28;20470;-65
2023/10/19 06:57:32;;;;;;;7.65;3.83;;;6.00;99.20;;;;;;5001136;28;20036;-65
2023/10/19 06:59:59;;;;;;;6.13;3.60;;;6.00;99.30;;;;;;5009074;28;20080;-66
2023/10/19 07:02:24;;;;;;;7.88;4.03;;;6.00;99.30;;;;;;5001851;28;20037;-65
2023/10/19 07:04:49;;;;;;;6.43;3.78;;;6.00;99.20;;;;;;4999713;28;20379;-66
2023/10/19 07:07:15;;;;;;;6.75;4.30;;;6.00;99.20;;;;;;5017734;28;20069;-65
2023/10/19 07:09:41;;;;;;;7.57;3.55;;;6.00;99.20;;;;;;5004732;28;20026;-65
2023/10/19 07:12:07;;;;;;;7.38;3.80;;;6.00;99.20;;;;;;5006940;28;20037;-64
2023/10/19 07:14:33;;;;;;;7.95;3.65;;;6.00;99.20;;;;;;5010501;28;20069;-65
2023/10/19 07:16:59;;;;;;;8.40;4.53;;;6.10;99.30;;;;;;5003216;28;20073;-66
2023/10/19 07:19:25;;;;;;;7.90;4.25;;;6.10;99.20;;;;;;5002658;28;20407;-66
2023/10/19 07:21:57;;;;;;;7.93;3.72;;;6.10;99.30;;;;;;4995446;28;20028;-67
2023/10/19 07:24:23;;;;;;;5.93;3.45;;;6.10;99.30;;;;;;5009344;28;20034;-65
2023/10/19 07:27:04;;;;;;;8.57;4.53;;;6.10;99.20;;;;;;5002848;28;20035;-66
2023/10/19 07:29:31;;;;;;;4.55;2.78;;;6.10;99.30;;;;;;5005251;28;20033;-65
2023/10/19 07:31:58;;;;;;;7.30;3.35;;;6.10;99.30;;;;;;5015278;28;20029;-65
2023/10/19 07:34:27;;;;;;;6.25;3.80;;;6.10;99.30;;;;;;5004670;28;20387;-66
2023/10/19 07:36:58;;;;;;;7.28;3.90;;;6.10;99.40;;;;;;5004860;28;20072;-65
2023/10/19 07:39:25;;;;;;;;;;;6.20;99.30;;;;;;4999699;28;20117;-65
2023/10/19 07:41:51;;;;;;;6.55;3.67;;;6.20;99.20;;;;;;5010454;28;19905;-66
2023/10/19 07:44:16;;;;;;;7.88;4.20;;;6.20;99.30;;;;;;5007034;28;20100;-65
2023/10/19 07:46:42;;;;;;;7.30;4.10;;;6.10;99.20;;;;;;5014608;28;20044;-67
2023/10/19 07:49:07;;;;;;;8.75;4.38;;;6.20;99.30;;;;;;5013954;28;20041;-65
2023/10/19 07:51:33;;;;;;;8.70;4.57;;;6.20;99.30;;;;;;5009697;28;20084;-65
2023/10/19 07:53:58;;;;;;;7.60;4.15;;;6.20;99.30;;;;;;5002799;28;20526;-67
2023/10/19 07:56:24;;;;;;;8.30;3.78;;;6.20;99.30;;;;;;5009953;28;20122;-65
2023/10/19 07:58:50;;;;;;;7.80;4.07;;;6.20;99.30;;;;;;5011192;28;20391;-66
2023/10/19 08:01:16;;;;;;;8.48;4.50;;;6.20;99.30;;;;;;5004214;28;20026;-65
2023/10/19 08:03:41;;;;;;;6.97;4.05;;;6.30;99.40;;;;;;5010082;28;20041;-65
2023/10/19 08:06:07;;;;;;;7.82;4.63;;;6.30;99.20;;;;;;4999164;28;20034;-67
2023/10/19 08:08:35;;;;;;;9.18;4.50;;;6.30;99.20;;;;;;5003961;28;20029;-65
2023/10/19 08:11:01;;;;;;;7.75;4.47;;;6.40;99.20;;;;;;5008228;28;20033;-65
2023/10/19 08:13:27;;;;;;;8.13;4.20;;;6.40;99.20;;;;;;5001483;28;20485;-65
2023/10/19 08:15:53;;;;;;;6.60;4.35;;;6.40;99.20;;;;;;5011618;28;20026;-66
2023/10/19 08:18:20;;;;;;;7.53;3.95;;;6.40;99.10;;;;;;5011796;28;20367;-65
2023/10/19 08:20:45;;;;;;;7.47;4.07;;;6.40;99.00;;;;;;5013239;28;20064;-64
2023/10/19 08:23:13;;;;;;;8.68;4.80;;;6.40;99.00;;;;;;5012518;28;20034;-65
2023/10/19 08:25:39;;;;;;;7.18;4.03;;;6.40;99.00;;;;;;5028183;28;20057;-65
2023/10/19 08:28:06;;;;;;;6.90;3.97;;;6.40;99.10;;;;;;5001548;28;20084;-64
2023/10/19 08:30:34;;;;;;;7.88;4.43;;;6.50;99.10;;;;;;5012151;28;20041;-64
2023/10/19 08:32:59;;;;;;;8.00;3.72;;;6.60;99.10;;;;;;5007883;28;20049;-64
2023/10/19 08:35:26;;;;;;;7.65;3.90;;;6.50;99.00;;;;;;5011004;28;20038;-64
2023/10/19 08:37:52;;;;;;;8.70;4.45;;;6.60;99.10;;;;;;5009319;28;20109;-64
2023/10/19 08:40:19;;;;;;;8.70;3.75;;;6.60;99.00;;;;;;5004161;28;20494;-65
2023/10/19 08:42:45;;;;;;;7.20;3.90;;;6.50;98.80;;;;;;5003762;28;20533;-64
2023/10/19 08:45:14;;;;;;;7.35;4.30;;;6.50;98.90;;;;;;5025019;28;20482;-64
2023/10/19 08:48:00;;;;;;;7.93;4.68;;;6.50;98.90;;;;;;5006957;28;20558;-64
2023/10/19 08:50:33;;;;;;;9.57;4.32;;;6.50;98.90;;;;;;5007597;28;20040;-64
2023/10/19 08:53:03;;;;;;;8.35;4.18;;;6.60;99.00;;;;;;5008993;28;20437;-64
2023/10/19 08:55:30;;;;;;;6.40;3.85;;;6.60;98.90;;;;;;5003221;28;20034;-64
2023/10/19 08:57:58;;;;;;;8.10;4.22;;;6.50;98.80;;;;;;4998463;28;20034;-66
2023/10/19 09:00:24;;;;;;;6.93;3.42;;;6.60;99.00;;;;;;5000505;28;20028;-64
2023/10/19 09:02:51;;;;;;;9.10;4.50;;;6.60;98.80;;;;;;5008277;28;20034;-65
2023/10/19 09:05:22;;;;;;;7.25;4.30;;;6.60;98.80;;;;;;5001127;28;20041;-67
2023/10/19 09:07:47;;;;;;;5.97;3.60;;;6.70;98.90;;;;;;5003207;28;20135;-64
2023/10/19 09:10:16;;;;;;;8.10;4.18;;;6.80;98.80;;;;;;5000628;28;20062;-64
2023/10/19 09:12:42;;;;;;;8.57;4.50;;;6.80;98.80;;;;;;5007356;28;20033;-64
2023/10/19 09:15:26;;;;;;;6.95;3.67;;;6.80;98.90;;;;;;5008080;28;20029;-64
2023/10/19 09:17:54;;;;;;;7.05;3.90;;;6.90;99.00;;;;;;5002695;28;20026;-65
2023/10/19 09:20:27;;;;;;;7.55;4.63;;;6.90;98.90;;;;;;4995535;28;20113;-65
2023/10/19 09:22:54;;;;;;;7.53;3.58;;;6.80;98.80;;;;;;5001040;28;20042;-64
2023/10/19 09:25:20;;;;;;;8.00;4.05;;;6.80;98.60;;;;;;5005416;28;20064;-64
2023/10/19 09:27:46;;;;;;;7.25;4.22;;;6.80;98.80;;;;;;4999520;28;20471;-64
2023/10/19 09:30:16;;;;;;;9.05;4.57;;;6.60;98.60;;;;;;5005680;28;20034;-66
2023/10/19 09:32:42;;;;;;;7.17;3.87;;;6.70;99.00;;;;;;5000813;28;20406;-64
2023/10/19 09:35:08;;;;;;;9.00;3.95;;;6.60;98.70;;;;;;5002889;28;20034;-64
2023/10/19 09:37:34;;;;;;;8.52;4.35;;;6.50;98.90;;;;;;5003270;28;20096;-64
2023/10/19 09:40:00;;;;;;;8.02;4.47;;;6.50;98.90;;;;;;5000770;28;20699;-65
2023/10/19 09:42:28;;;;;;;9.00;3.92;;;6.50;99.00;;;;;;5005238;28;20029;-64
2023/10/19 09:45:05;;;;;;;7.28;3.70;;;6.50;99.00;;;;;;4998176;28;20038;-64
2023/10/19 09:47:35;;;;;;;8.23;3.72;;;6.50;99.10;;;;;;5001802;28;20041;-64
2023/10/19 09:50:02;;;;;;;5.53;3.05;;;6.60;99.20;;;;;;5006897;28;20034;-67
2023/10/19 09:52:31;;;;;;;7.00;3.88;;;6.60;99.40;;;;;;5006146;28;20036;-66
2023/10/19 09:55:29;;;;;;;5.55;3.38;;;6.60;99.30;;;;;;5003323;28;20037;-66
2023/10/19 09:58:07;;;;;;;7.30;3.78;;;6.60;99.30;;;;;;4997075;28;20109;-64
2023/10/19 10:00:34;;;;;;;9.38;4.15;;;6.60;99.20;;;;;;5009606;28;20104;-64
2023/10/19 10:03:02;;;;;;;6.45;3.72;;;6.80;99.40;;;;;;5000304;28;20035;-64
2023/10/19 10:05:43;;;;;;;7.75;4.30;;;6.70;99.20;;;;;;5004659;28;20018;-64
2023/10/19 10:08:17;;;;;;;5.53;3.28;;;6.80;99.40;;;;;;5009524;28;20052;-64
2023/10/19 10:10:47;;;;;;;6.95;3.92;;;6.80;99.30;;;;;;5007680;28;20099;-64
2023/10/19 10:13:28;;;;;;;8.35;4.55;;;6.80;99.30;;;;;;5001738;28;20026;-65
2023/10/19 10:15:54;;;;;;;9.73;4.55;;;7.00;99.40;;;;;;5003514;28;20026;-65
2023/10/19 10:18:24;;;;;;;6.88;3.95;;;7.00;99.30;;;;;;5009625;28;20042;-65
2023/10/19 10:21:11;;;;;;;9.23;4.55;;;7.10;99.30;;;;;;5000503;28;20050;-67
2023/10/19 10:23:43;;;;;;;9.30;4.15;;;7.00;99.20;;;;;;5008224;28;20041;-65
2023/10/19 10:26:13;;;;;;;8.43;4.35;;;6.90;99.00;;;;;;5007090;28;20061;-67
2023/10/19 10:28:45;;;;;;;8.77;4.87;;;7.10;99.30;;;;;;5002229;28;20026;-65
2023/10/19 10:31:15;;;;;;;8.45;4.05;;;7.00;99.10;;;;;;5008562;28;20046;-64
2023/10/19 10:33:54;;;;;;;7.38;3.80;;;6.90;99.10;;;;;;5009539;28;20038;-65
2023/10/19 10:36:20;;;;;;;8.50;4.43;;;6.90;99.10;;;;;;5008417;28;20053;-65
2023/10/19 10:38:50;;;;;;;6.75;4.28;;;6.80;99.20;;;;;;5005479;28;20058;-64
2023/10/19 10:41:31;;;;;;;10.07;5.13;;;6.80;99.10;;;;;;5004334;28;20026;-66
2023/10/19 10:43:58;;;;;;;7.45;4.35;;;6.80;99.20;;;;;;5007413;28;20382;-64
2023/10/19 10:46:28;;;;;;;8.63;4.32;;;6.80;99.10;;;;;;5010598;28;20038;-66
2023/10/19 10:48:54;;;;;;;7.82;4.63;;;6.80;99.20;;;;;;5005439;28;20030;-64
2023/10/19 10:51:27;;;;;;;10.43;4.97;;;6.70;99.00;;;;;;5008658;28;20394;-66
2023/10/19 10:53:53;;;;;;;6.22;4.13;;;6.80;99.20;;;;;;5007771;28;20037;-64
2023/10/19 10:56:21;;;;;;;8.63;4.82;;;6.80;99.10;;;;;;4991992;28;20498;-65
2023/10/19 10:58:47;;;;;;;9.55;4.05;;;6.80;99.20;;;;;;5008027;28;20025;-65
2023/10/19 11:01:14;;;;;;;8.38;4.22;;;6.80;99.20;;;;;;5007118;28;20466;-64
2023/10/19 11:03:42;;;;;;;8.10;4.57;;;6.70;99.20;;;;;;5009007;28;20037;-64
2023/10/19 11:06:08;;;;;;;9.57;4.13;;;6.70;99.20;;;;;;4998558;28;20398;-65
2023/10/19 11:08:35;;;;;;;6.55;3.80;;;6.70;99.20;;;;;;5006054;28;20474;-64
2023/10/19 11:11:12;;;;;;;7.20;4.03;;;6.70;99.30;;;;;;5003922;28;20490;-64
2023/10/19 11:13:38;;;;;;;7.85;4.45;;;6.80;99.40;;;;;;5003922;28;20510;-64
2023/10/19 11:16:07;;;;;;;11.00;3.50;;;6.80;99.40;;;;;;5001069;28;20125;-64
2023/10/19 11:18:40;;;;;;;8.07;4.53;;;6.80;99.40;;;;;;5006407;28;20113;-64
2023/10/19 11:21:09;;;;;;;6.15;3.60;;;6.80;99.30;;;;;;4994640;28;20019;-65
2023/10/19 11:23:39;;;;;;;7.53;3.92;;;6.80;99.40;;;;;;4999243;28;20180;-65
2023/10/19 11:26:05;;;;;;;8.50;4.70;;;6.80;99.50;;;;;;4994546;28;20052;-66
2023/10/19 11:28:33;;;;;;;7.95;4.75;;;6.80;99.50;;;;;;4999919;28;20434;-65
2023/10/19 11:31:19;;;;;;;9.07;4.28;;;6.80;99.30;;;;;;5009541;28;20037;-66
2023/10/19 11:33:46;;;;;;;8.73;4.55;;;6.70;99.30;;;;;;5008434;28;20030;-65
2023/10/19 11:36:12;;;;;;;7.55;4.55;;;6.70;99.40;;;;;;5005871;28;20092;-66
2023/10/19 11:38:48;;;;;;;7.72;4.20;;;6.70;99.30;;;;;;5005009;28;20030;-66
2023/10/19 11:41:14;;;;;;;6.78;3.60;;;6.80;99.40;;;;;;5001353;28;20030;-69
2023/10/19 11:43:41;;;;;;;8.70;4.60;;;6.90;99.30;;;;;;5009103;28;20467;-67
2023/10/19 11:46:07;;;;;;;8.32;4.72;;;6.90;99.40;;;;;;5004731;28;20030;-65
2023/10/19 11:48:33;;;;;;;8.88;4.88;;;6.90;99.40;;;;;;5003294;28;20037;-66
2023/10/19 11:51:00;;;;;;;8.52;4.68;;;6.80;99.40;;;;;;5008422;28;20037;-66
2023/10/19 11:53:26;;;;;;;6.60;3.63;;;6.80;99.40;;;;;;5004185;28;20088;-65
2023/10/19 11:55:51;;;;;;;6.88;4.32;;;6.70;99.20;;;;;;5003857;28;20030;-65
2023/10/19 11:58:17;;;;;;;9.20;5.07;;;6.80;99.30;;;;;;4995779;28;20040;-65
2023/10/19 12:00:43;;;;;;;7.93;4.57;;;6.80;99.40;;;;;;5010088;28;20068;-66
2023/10/19 12:03:10;;;;;;;8.30;4.43;;;6.70;99.40;;;;;;5007085;28;20462;-67
2023/10/19 12:05:37;;;;;;;7.63;4.65;;;6.70;99.30;;;;;;4996220;28;20026;-66
2023/10/19 12:08:02;;;;;;;9.05;5.53;;;6.80;99.50;;;;;;5003805;28;20044;-67
2023/10/19 12:10:35;;;;;;;6.82;4.30;;;6.80;99.50;;;;;;5002971;28;20018;-66
2023/10/19 12:13:01;;;;;;;8.27;4.35;;;6.80;99.50;;;;;;5016642;28;20065;-66
2023/10/19 12:15:27;;;;;;;8.73;4.57;;;6.70;99.30;;;;;;5007039;28;20035;-65
2023/10/19 12:17:54;;;;;;;8.23;4.57;;;6.80;99.40;;;;;;5002265;28;20101;-65
2023/10/19 12:20:21;;;;;;;8.63;4.55;;;6.80;99.40;;;;;;5012447;28;20461;-66
2023/10/19 12:22:47;;;;;;;8.75;4.90;;;6.90;99.40;;;;;;5009141;28;20080;-65
2023/10/19 12:25:14;;;;;;;9.57;5.00;;;6.80;99.40;;;;;;5011790;28;20046;-68
2023/10/19 12:27:40;;;;;;;8.13;4.53;;;6.80;99.20;;;;;;5000749;28;20030;-67
2023/10/19 12:30:16;;;;;;;6.47;4.00;;;6.90;99.50;;;;;;5013466;28;20093;-66
2023/10/19 12:32:42;;;;;;;5.47;3.35;;;6.80;99.30;;;;;;5010470;28;21895;-66
2023/10/19 12:35:11;;;;;;;7.93;4.10;;;6.80;99.30;;;;;;5007337;28;20038;-66
2023/10/19 12:37:46;;;;;;;6.30;3.95;;;6.80;99.20;;;;;;5007513;28;20018;-65
2023/10/19 12:40:26;;;;;;;6.07;3.15;;;6.80;99.30;;;;;;4998781;28;20066;-66
2023/10/19 12:42:55;;;;;;;6.65;3.63;;;6.80;99.30;;;;;;5002116;28;20441;-67
2023/10/19 12:45:25;;;;;;;6.93;3.60;;;6.70;99.20;;;;;;5000919;28;20100;-63
2023/10/19 12:47:54;;;;;;;8.35;4.15;;;6.70;99.20;;;;;;5004845;28;20034;-66
2023/10/19 12:50:23;;;;;;;6.55;3.50;;;6.80;99.40;;;;;;5005829;28;20087;-66
2023/10/19 12:52:52;;;;;;;6.70;3.55;;;6.80;99.30;;;;;;5002527;28;20121;-67
2023/10/19 12:55:18;;;;;;;6.03;3.40;;;6.70;99.20;;;;;;5001175;28;20031;-65
2023/10/19 12:57:44;;;;;;;7.85;4.28;;;6.60;99.20;;;;;;4996695;28;20345;-66
2023/10/19 13:03:00;;;;;;;5.57;3.53;;;6.70;99.20;;;;;;5006986;28;20045;-67
2023/10/19 13:05:27;;;;;;;6.10;3.22;;;6.70;99.30;;;;;;5000037;28;20030;-66
2023/10/19 13:07:53;;;;;;;7.03;3.28;;;6.60;99.10;;;;;;4998208;28;20029;-66
2023/10/19 13:10:19;;;;;;;5.60;2.72;;;6.60;99.10;;;;;;4998892;28;20912;-66
2023/10/19 13:12:44;;;;;;;7.80;3.72;;;6.60;99.20;;;;;;5014628;28;20141;-68
2023/10/19 13:15:13;;;;;;;7.07;3.72;;;6.70;99.30;;;;;;5004221;28;20115;-67